createdAt,value
2023-04-14T00:00:41.097Z,14.50
2023-04-14T00:02:07.664Z,14.57
2023-04-14T00:03:32.580Z,17.23
2023-04-14T00:04:56.983Z,15.07
2023-04-14T00:06:23.194Z,18.80
2023-04-14T00:07:45.133Z,14.57
2023-04-14T00:14:18.245Z,15.07
2023-04-14T00:15:41.940Z,13.82
2023-04-14T00:17:03.423Z,13.10
2023-04-14T00:18:25.743Z,13.73
2023-04-14T00:19:49.907Z,11.38
2023-04-14T00:21:11.009Z,13.00
2023-04-14T00:22:33.432Z,13.20
2023-04-14T00:23:56.901Z,14.63
2023-04-14T00:25:19.405Z,14.13
2023-04-14T00:26:41.896Z,13.35
2023-04-14T00:28:04.267Z,13.23
2023-04-14T00:29:27.930Z,14.25
2023-04-14T00:30:50.537Z,12.95
2023-04-14T00:32:13.487Z,12.05
2023-04-14T00:33:40.376Z,9.80
2023-04-14T00:35:05.649Z,12.15
2023-04-14T00:36:31.476Z,13.10
2023-04-14T00:37:58.653Z,11.32
2023-04-14T00:39:27.346Z,10.95
2023-04-14T00:40:54.086Z,11.18
2023-04-14T00:42:28.327Z,9.93
2023-04-14T00:43:54.700Z,11.30
2023-04-14T00:45:21.508Z,12.88
2023-04-14T00:46:47.835Z,11.43
2023-04-14T00:48:13.245Z,15.65
2023-04-14T00:49:36.000Z,14.45
2023-04-14T00:51:03.993Z,10.23
2023-04-14T00:52:27.507Z,9.77
2023-04-14T00:53:51.702Z,12.25
2023-04-14T00:55:16.704Z,12.95
2023-04-14T00:56:43.235Z,12.15
2023-04-14T00:58:07.684Z,9.90
2023-04-14T00:59:30.012Z,10.52
2023-04-14T01:00:55.785Z,15.77
2023-04-14T01:02:17.456Z,13.93
2023-04-14T01:03:40.297Z,12.57
2023-04-14T01:05:02.803Z,11.40
2023-04-14T01:06:27.314Z,13.15
2023-04-14T01:07:51.912Z,13.05
2023-04-14T01:09:13.996Z,11.00
2023-04-14T01:12:26.117Z,12.27
2023-04-14T01:13:59.618Z,13.68
2023-04-14T01:15:31.678Z,12.07
2023-04-14T01:17:02.316Z,12.98
2023-04-14T01:18:42.401Z,10.40
2023-04-14T01:20:19.867Z,13.05
2023-04-14T01:21:47.612Z,15.05
2023-04-14T01:23:14.506Z,12.45
2023-04-14T01:25:03.524Z,10.95
2023-04-14T01:26:31.294Z,10.27
2023-04-14T01:28:10.116Z,18.52
2023-04-14T01:30:03.227Z,11.27
2023-04-14T01:31:32.132Z,15.25
2023-04-14T01:32:58.294Z,11.32
2023-04-14T01:34:29.093Z,11.02
2023-04-14T01:35:58.767Z,12.95
2023-04-14T01:37:31.737Z,14.02
2023-04-14T01:38:56.131Z,13.13
2023-04-14T01:40:21.025Z,12.45
2023-04-14T01:41:49.975Z,11.88
2023-04-14T01:43:17.738Z,15.85
2023-04-14T01:44:42.043Z,14.10
2023-04-14T01:46:07.557Z,11.98
2023-04-14T01:47:31.576Z,12.98
2023-04-14T01:48:53.307Z,15.20
2023-04-14T01:50:17.794Z,13.88
2023-04-14T01:51:41.921Z,16.38
2023-04-14T01:53:06.629Z,11.02
2023-04-14T01:54:30.981Z,13.05
2023-04-14T01:55:53.654Z,12.65
2023-04-14T01:57:23.026Z,14.25
2023-04-14T01:58:49.952Z,10.75
2023-04-14T02:00:14.608Z,14.82
2023-04-14T02:01:41.851Z,16.60
2023-04-14T02:03:07.857Z,16.13
2023-04-14T02:04:36.419Z,16.92
2023-04-14T02:06:00.103Z,13.15
2023-04-14T02:07:23.046Z,14.18
2023-04-14T02:08:46.128Z,15.18
2023-04-14T02:10:12.236Z,14.55
2023-04-14T02:11:44.374Z,14.70
2023-04-14T02:13:10.025Z,13.38
2023-04-14T02:14:36.460Z,12.75
2023-04-14T02:16:00.946Z,14.40
2023-04-14T02:17:33.561Z,15.63
2023-04-14T02:19:01.041Z,16.60
2023-04-14T02:20:22.817Z,14.05
2023-04-14T02:21:46.443Z,18.48
2023-04-14T02:23:10.809Z,12.55
2023-04-14T02:24:39.408Z,16.52
2023-04-14T02:26:07.140Z,15.77
2023-04-14T02:27:35.273Z,16.70
2023-04-14T02:29:08.749Z,15.27
2023-04-14T02:30:40.357Z,14.00
2023-04-14T02:32:06.014Z,16.80
2023-04-14T02:33:32.995Z,16.95
2023-04-14T02:35:13.764Z,14.95
2023-04-14T02:36:40.709Z,15.43
2023-04-14T02:38:38.006Z,15.57
2023-04-14T02:40:15.153Z,16.20
2023-04-14T02:41:55.007Z,14.85
2023-04-14T02:43:20.952Z,17.45
2023-04-14T02:44:48.157Z,19.00
2023-04-14T02:46:13.171Z,17.35
2023-04-14T02:47:39.031Z,15.93
2023-04-14T02:49:06.322Z,18.27
2023-04-14T02:50:33.628Z,17.67
2023-04-14T02:52:06.747Z,17.98
2023-04-14T02:53:28.865Z,17.98
2023-04-14T02:55:05.422Z,18.92
2023-04-14T02:56:28.975Z,19.85
2023-04-14T02:57:52.467Z,22.20
2023-04-14T02:59:22.287Z,23.00
2023-04-14T03:00:52.461Z,21.15
2023-04-14T03:02:18.261Z,21.10
2023-04-14T03:03:45.884Z,20.48
2023-04-14T03:05:19.766Z,22.13
2023-04-14T03:07:05.192Z,22.77
2023-04-14T03:08:28.850Z,20.90
2023-04-14T03:09:50.964Z,19.75
2023-04-14T03:11:18.144Z,22.52
2023-04-14T03:12:42.524Z,24.90
2023-04-14T03:14:06.796Z,21.90
2023-04-14T03:15:29.835Z,27.23
2023-04-14T03:16:56.356Z,22.42
2023-04-14T03:18:24.192Z,23.27
2023-04-14T03:19:48.759Z,21.23
2023-04-14T03:21:11.688Z,24.35
2023-04-14T03:22:41.010Z,24.13
2023-04-14T03:24:07.464Z,20.38
2023-04-14T03:25:30.729Z,21.35
2023-04-14T03:26:58.184Z,26.63
2023-04-14T03:28:23.194Z,21.67
2023-04-14T03:29:49.167Z,23.80
2023-04-14T03:31:11.968Z,25.00
2023-04-14T03:32:43.762Z,23.50
2023-04-14T03:34:10.497Z,21.23
2023-04-14T03:35:38.031Z,21.75
2023-04-14T03:37:01.256Z,27.35
2023-04-14T03:38:29.153Z,28.63
2023-04-14T03:40:00.793Z,22.92
2023-04-14T03:41:27.666Z,25.98
2023-04-14T03:42:52.742Z,25.45
2023-04-14T03:44:19.731Z,26.70
2023-04-14T03:45:47.775Z,25.60
2023-04-14T03:47:12.927Z,26.52
2023-04-14T03:48:44.570Z,24.95
2023-04-14T03:50:12.429Z,26.00
2023-04-14T03:51:40.231Z,28.40
2023-04-14T03:53:02.029Z,29.67
2023-04-14T03:54:30.676Z,25.77
2023-04-14T03:55:54.365Z,26.67
2023-04-14T03:57:21.335Z,31.80
2023-04-14T04:00:48.047Z,24.45
2023-04-14T04:02:11.318Z,30.38
2023-04-14T04:03:37.079Z,26.92
2023-04-14T04:05:02.178Z,29.25
2023-04-14T04:06:27.172Z,34.38
2023-04-14T04:07:51.959Z,28.80
2023-04-14T04:09:16.072Z,28.15
2023-04-14T04:10:42.279Z,32.20
2023-04-14T04:12:07.457Z,33.15
2023-04-14T04:13:29.852Z,31.25
2023-04-14T04:14:55.005Z,27.83
2023-04-14T04:16:18.801Z,31.27
2023-04-14T04:17:47.215Z,30.80
2023-04-14T04:19:14.240Z,29.08
2023-04-14T04:20:42.214Z,30.65
2023-04-14T04:22:14.098Z,32.83
2023-04-14T04:24:23.447Z,32.83
2023-04-14T04:27:24.469Z,31.08
2023-04-14T04:29:35.724Z,37.72
2023-04-14T04:37:12.210Z,36.05
2023-04-14T04:38:39.518Z,36.03
2023-04-14T04:46:46.282Z,39.70
2023-04-14T04:51:35.926Z,41.55
2023-04-14T04:52:57.933Z,47.38
2023-04-14T04:54:20.632Z,49.90
2023-04-14T04:55:43.538Z,44.17
2023-04-14T04:57:04.813Z,43.85
2023-04-14T04:58:28.777Z,46.53
2023-04-14T04:59:55.393Z,50.70
2023-04-14T05:01:24.692Z,49.70
2023-04-14T05:06:04.334Z,46.20
2023-04-14T05:07:30.344Z,47.40
2023-04-14T05:08:58.713Z,44.85
2023-04-14T05:10:28.805Z,52.47
2023-04-14T05:12:09.736Z,51.35
2023-04-14T05:13:35.086Z,53.42
2023-04-14T05:20:34.324Z,49.75
2023-04-14T05:22:04.830Z,52.13
2023-04-14T05:23:31.337Z,51.60
2023-04-14T05:25:02.175Z,56.40
2023-04-14T05:26:51.213Z,49.95
2023-04-14T05:30:36.299Z,50.33
2023-04-14T05:32:02.254Z,50.00
2023-04-14T05:33:50.379Z,50.45
2023-04-14T05:35:12.839Z,56.33
2023-04-14T05:37:02.760Z,52.00
2023-04-14T05:38:29.446Z,54.40
2023-04-14T05:39:50.829Z,53.40
2023-04-14T05:41:13.350Z,57.58
2023-04-14T05:42:35.588Z,54.15
2023-04-14T05:43:57.748Z,57.47
2023-04-14T05:45:20.368Z,54.35
2023-04-14T05:46:42.604Z,49.67
2023-04-14T05:48:07.154Z,54.95
2023-04-14T05:49:32.202Z,55.17
2023-04-14T05:50:54.583Z,49.90
2023-04-14T05:52:17.120Z,48.53
2023-04-14T05:53:40.911Z,48.22
2023-04-14T05:55:18.573Z,46.92
2023-04-14T05:56:46.851Z,56.15
2023-04-14T05:58:12.481Z,49.92
2023-04-14T06:00:03.428Z,47.33
2023-04-14T06:01:38.255Z,45.33
2023-04-14T06:03:01.638Z,49.33
2023-04-14T06:04:24.493Z,48.45
2023-04-14T06:05:48.404Z,49.88
2023-04-14T06:07:10.702Z,52.25
2023-04-14T06:08:58.804Z,55.58
2023-04-14T06:10:24.960Z,58.58
2023-04-14T06:11:52.887Z,59.15
2023-04-14T06:13:20.250Z,58.33
2023-04-14T06:14:48.837Z,54.53
2023-04-14T06:16:41.482Z,61.90
2023-04-14T06:18:25.763Z,57.35
2023-04-14T06:19:49.364Z,57.47
2023-04-14T06:21:11.878Z,55.40
2023-04-14T06:22:34.324Z,55.90
2023-04-14T06:23:58.290Z,54.38
2023-04-14T06:25:20.709Z,59.75
2023-04-14T06:26:43.976Z,58.95
2023-04-14T06:28:09.900Z,53.05
2023-04-14T06:29:32.173Z,56.92
2023-04-14T06:30:54.826Z,52.15
2023-04-14T06:32:16.853Z,51.35
2023-04-14T06:33:39.315Z,53.65
2023-04-14T06:35:01.677Z,57.97
2023-04-14T06:36:25.087Z,52.08
2023-04-14T06:37:47.630Z,50.75
2023-04-14T06:39:11.298Z,50.47
2023-04-14T06:40:35.895Z,54.08
2023-04-14T06:41:57.274Z,53.13
2023-04-14T06:43:20.043Z,61.85
2023-04-14T06:44:42.679Z,52.95
2023-04-14T06:46:05.111Z,54.28
2023-04-14T06:47:29.881Z,56.47
2023-04-14T06:48:52.570Z,53.05
2023-04-14T06:50:18.784Z,52.40
2023-04-14T06:51:42.809Z,55.00
2023-04-14T06:53:06.461Z,53.92
2023-04-14T06:56:58.073Z,53.25
2023-04-14T06:58:21.897Z,50.85
2023-04-14T06:59:47.731Z,51.83
2023-04-14T07:01:10.244Z,52.33
2023-04-14T07:02:36.466Z,51.22
2023-04-14T07:03:59.637Z,51.35
2023-04-14T07:05:22.943Z,51.45
2023-04-14T07:06:46.526Z,54.35
2023-04-14T07:08:10.461Z,46.58
2023-04-14T07:09:35.273Z,56.38
2023-04-14T07:11:02.251Z,50.55
2023-04-14T07:12:24.783Z,47.78
2023-04-14T07:13:47.662Z,44.50
2023-04-14T07:15:11.536Z,44.08
2023-04-14T07:16:37.120Z,48.17
2023-04-14T07:18:01.301Z,43.33
2023-04-14T07:19:23.759Z,42.58
2023-04-14T07:20:46.891Z,43.92
2023-04-14T07:22:09.261Z,45.47
2023-04-14T07:23:35.850Z,43.92
2023-04-14T07:25:08.972Z,40.13
2023-04-14T07:26:31.287Z,40.65
2023-04-14T07:28:02.539Z,44.33
2023-04-14T07:29:27.357Z,42.08
2023-04-14T07:30:50.283Z,41.53
2023-04-14T07:32:13.586Z,38.05
2023-04-14T07:33:37.128Z,42.28
2023-04-14T07:35:01.643Z,39.58
2023-04-14T07:36:23.805Z,35.63
2023-04-14T07:37:46.013Z,42.78
2023-04-14T07:39:08.430Z,38.20
2023-04-14T07:40:34.947Z,40.03
2023-04-14T07:41:58.857Z,44.83
2023-04-14T07:43:21.401Z,44.90
2023-04-14T07:44:44.028Z,41.85
2023-04-14T07:46:07.960Z,39.65
2023-04-14T07:47:30.502Z,40.92
2023-04-14T07:48:55.591Z,40.92
2023-04-14T07:50:19.795Z,41.42
2023-04-14T07:51:42.525Z,37.55
2023-04-14T07:53:05.107Z,46.47
2023-04-14T07:54:30.483Z,42.33
2023-04-14T07:55:54.297Z,44.40
2023-04-14T07:57:16.509Z,42.35
2023-04-14T08:00:00.592Z,43.50
2023-04-14T08:01:25.889Z,43.58
2023-04-14T08:02:47.976Z,40.22
2023-04-14T08:04:11.108Z,39.78
2023-04-14T08:05:33.573Z,48.28
2023-04-14T08:06:55.866Z,39.63
2023-04-14T08:08:18.465Z,45.92
2023-04-14T08:09:41.229Z,43.05
2023-04-14T08:11:05.038Z,44.88
2023-04-14T08:12:29.819Z,43.13
2023-04-14T08:13:53.165Z,44.72
2023-04-14T08:15:15.704Z,43.28
2023-04-14T08:16:39.989Z,47.83
2023-04-14T08:18:03.180Z,41.95
2023-04-14T08:19:34.112Z,47.58
2023-04-14T08:21:18.231Z,45.50
2023-04-14T08:22:47.014Z,42.53
2023-04-14T08:24:09.959Z,46.28
2023-04-14T08:26:13.624Z,49.75
2023-04-14T08:28:13.342Z,46.80
2023-04-14T08:30:24.166Z,48.25
2023-04-14T08:31:50.143Z,44.08
2023-04-14T08:33:15.270Z,46.90
2023-04-14T08:35:37.933Z,48.40
2023-04-14T08:37:15.780Z,46.10
2023-04-14T08:41:25.159Z,47.83
2023-04-14T08:43:04.116Z,46.33
2023-04-14T08:45:12.336Z,47.53
2023-04-14T08:47:02.665Z,46.67
2023-04-14T08:49:04.528Z,41.67
2023-04-14T08:53:46.184Z,47.67
2023-04-14T08:59:12.067Z,45.90
2023-04-14T09:01:18.828Z,50.78
2023-04-14T09:03:12.978Z,69.65
2023-04-14T09:04:53.574Z,73.53
2023-04-14T09:06:27.218Z,70.35
2023-04-14T09:08:02.719Z,64.45
2023-04-14T09:09:27.355Z,55.88
2023-04-14T09:10:56.104Z,57.10
2023-04-14T09:12:19.429Z,54.42
2023-04-14T09:14:01.896Z,58.05
2023-04-14T09:15:29.432Z,53.10
2023-04-14T09:16:56.904Z,57.63
2023-04-14T09:18:19.449Z,56.25
2023-04-14T09:20:36.397Z,57.50
2023-04-14T09:21:52.248Z,58.95
2023-04-14T09:23:17.557Z,57.85
2023-04-14T09:24:40.045Z,68.43
2023-04-14T09:26:02.554Z,60.42
2023-04-14T09:27:26.459Z,66.38
2023-04-14T09:28:52.756Z,60.90
2023-04-14T09:30:22.232Z,67.68
2023-04-14T09:31:45.728Z,75.13
2023-04-14T09:33:09.195Z,64.28
2023-04-14T09:34:37.769Z,75.40
2023-04-14T09:36:00.139Z,75.38
2023-04-14T09:37:24.805Z,72.85
2023-04-14T09:38:49.490Z,91.07
2023-04-14T09:40:12.905Z,78.80
2023-04-14T09:41:35.833Z,77.18
2023-04-14T09:42:58.878Z,76.97
2023-04-14T09:44:25.879Z,69.28
2023-04-14T09:45:48.018Z,67.70
2023-04-14T09:47:16.512Z,68.07
2023-04-14T09:48:55.788Z,66.10
2023-04-14T09:50:18.295Z,62.58
2023-04-14T09:51:40.615Z,73.93
2023-04-14T09:53:05.869Z,70.75
2023-04-14T09:54:28.704Z,71.07
2023-04-14T09:55:53.438Z,58.55
2023-04-14T09:57:29.586Z,64.32
2023-04-14T09:58:51.953Z,65.03
2023-04-14T10:00:24.746Z,70.13
2023-04-14T10:02:10.266Z,68.32
2023-04-14T10:03:39.559Z,67.93
2023-04-14T10:05:06.538Z,69.78
2023-04-14T10:06:49.590Z,62.13
2023-04-14T10:08:18.833Z,68.10
2023-04-14T10:09:43.995Z,66.10
2023-04-14T10:11:38.288Z,74.90
2023-04-14T10:13:34.859Z,66.25
2023-04-14T10:17:05.387Z,73.47
2023-04-14T10:19:35.418Z,78.90
2023-04-14T10:22:19.157Z,71.45
2023-04-14T10:23:51.696Z,73.55
2023-04-14T10:25:44.179Z,81.57
2023-04-14T10:27:31.398Z,73.82
2023-04-14T10:29:03.461Z,73.15
2023-04-14T10:30:25.872Z,79.03
2023-04-14T10:31:50.552Z,72.30
2023-04-14T10:36:37.121Z,71.70
2023-04-14T10:37:59.793Z,79.30
2023-04-14T10:39:43.379Z,74.65
2023-04-14T10:41:07.678Z,77.63
2023-04-14T10:42:57.610Z,73.22
2023-04-14T10:46:50.605Z,76.72
2023-04-14T10:48:20.647Z,78.38
2023-04-14T10:49:46.469Z,79.82
2023-04-14T10:51:11.118Z,74.63
2023-04-14T10:52:40.859Z,81.60
2023-04-14T10:54:06.029Z,81.45
2023-04-14T10:55:29.869Z,82.43
2023-04-14T10:57:14.327Z,79.75
2023-04-14T10:58:38.555Z,85.82
2023-04-14T11:00:22.485Z,79.85
2023-04-14T11:01:59.723Z,79.10
2023-04-14T11:03:28.677Z,82.63
2023-04-14T11:05:09.245Z,80.18
2023-04-14T11:06:51.600Z,82.25
2023-04-14T11:08:23.795Z,84.15
2023-04-14T11:09:47.173Z,88.13
2023-04-14T11:11:14.211Z,85.50
2023-04-14T11:12:49.023Z,81.43
2023-04-14T11:14:14.206Z,83.85
2023-04-14T11:15:51.629Z,87.30
2023-04-14T11:17:22.123Z,83.03
2023-04-14T11:18:48.935Z,81.10
2023-04-14T11:20:15.979Z,84.45
2023-04-14T11:21:56.597Z,84.68
2023-04-14T11:23:29.358Z,86.50
2023-04-14T11:24:51.687Z,84.75
2023-04-14T11:26:14.702Z,90.43
2023-04-14T11:27:36.743Z,81.57
2023-04-14T11:29:00.443Z,84.95
2023-04-14T11:30:23.263Z,86.10
2023-04-14T11:31:46.740Z,85.10
2023-04-14T11:33:08.564Z,80.60
2023-04-14T11:34:30.049Z,79.05
2023-04-14T11:35:52.270Z,74.40
2023-04-14T11:37:14.679Z,83.97
2023-04-14T11:40:03.670Z,77.38
2023-04-14T11:41:27.229Z,80.50
2023-04-14T11:42:53.702Z,80.38
2023-04-14T11:44:18.500Z,80.07
2023-04-14T11:45:44.054Z,80.10
2023-04-14T11:47:06.282Z,76.60
2023-04-14T11:48:32.418Z,82.28
2023-04-14T11:49:56.142Z,82.35
2023-04-14T11:51:20.761Z,85.18
2023-04-14T11:52:50.704Z,77.75
2023-04-14T11:54:14.800Z,77.13
2023-04-14T11:55:36.987Z,74.80
2023-04-14T11:56:59.011Z,82.47
2023-04-14T11:58:23.887Z,72.47
2023-04-14T11:59:47.334Z,78.25
2023-04-14T12:01:10.792Z,78.70
2023-04-14T12:02:34.251Z,76.97
2023-04-14T12:04:21.661Z,74.43
2023-04-14T12:06:03.348Z,72.72
2023-04-14T12:07:39.853Z,77.80
2023-04-14T12:09:31.614Z,80.57
2023-04-14T12:11:31.860Z,76.03
2023-04-14T12:14:06.349Z,83.78
2023-04-14T12:18:46.477Z,80.55
2023-04-14T12:20:18.313Z,79.82
2023-04-14T12:21:54.389Z,77.10
2023-04-14T12:26:08.999Z,74.13
2023-04-14T12:28:31.323Z,74.93
2023-04-14T12:30:03.944Z,75.10
2023-04-14T12:34:18.419Z,75.30
2023-04-14T12:35:43.369Z,79.10
2023-04-14T12:37:12.285Z,80.72
2023-04-14T12:38:42.185Z,82.95
2023-04-14T12:40:14.047Z,77.88
2023-04-14T12:41:48.038Z,79.72
2023-04-14T12:43:36.791Z,81.18
2023-04-14T12:45:07.862Z,81.72
2023-04-14T12:47:20.566Z,77.72
2023-04-14T12:51:53.908Z,87.32
2023-04-14T12:54:24.266Z,84.35
2023-04-14T12:55:49.026Z,83.72
2023-04-14T12:57:36.689Z,81.20
2023-04-14T13:05:39.223Z,79.45
2023-04-14T13:07:46.229Z,88.03
2023-04-14T13:13:32.912Z,86.18
2023-04-14T13:15:00.682Z,89.25
2023-04-14T13:16:29.373Z,90.80
2023-04-14T13:20:39.945Z,97.07
2023-04-14T13:22:20.014Z,93.55
2023-04-14T13:24:24.663Z,97.60
2023-04-14T14:02:49.438Z,78.85
2023-04-14T14:04:26.994Z,81.32
2023-04-14T14:06:57.139Z,77.55
2023-04-14T14:08:22.563Z,76.50
2023-04-14T14:10:03.376Z,77.82
2023-04-14T14:11:29.535Z,78.32
2023-04-14T14:13:03.972Z,79.45
2023-04-14T14:14:31.435Z,79.28
2023-04-14T14:15:53.116Z,79.35
2023-04-14T14:17:22.743Z,79.50
2023-04-14T14:18:51.646Z,77.07
2023-04-14T14:20:14.183Z,76.93
2023-04-14T14:21:43.616Z,75.63
2023-04-14T14:23:06.587Z,73.07
2023-04-14T14:24:29.654Z,74.50
2023-04-14T14:25:53.798Z,78.70
2023-04-14T14:27:29.969Z,74.20
2023-04-14T14:28:55.100Z,70.80
2023-04-14T14:30:17.607Z,76.55
2023-04-14T14:31:40.066Z,73.70
2023-04-14T14:33:02.488Z,73.05
2023-04-14T14:34:26.111Z,76.50
2023-04-14T14:35:48.684Z,76.97
2023-04-14T14:37:15.553Z,68.63
2023-04-14T14:38:38.431Z,71.63
2023-04-14T14:40:01.281Z,75.25
2023-04-14T14:41:23.371Z,78.72
2023-04-14T14:42:45.541Z,77.18
2023-04-14T14:44:07.930Z,76.95
2023-04-14T14:45:31.886Z,70.80
2023-04-14T14:47:00.277Z,71.32
2023-04-14T14:48:26.888Z,75.53
2023-04-14T14:50:00.366Z,72.25
2023-04-14T14:51:24.301Z,75.40
2023-04-14T14:52:46.529Z,74.53
2023-04-14T14:54:10.303Z,73.20
2023-04-14T14:55:35.920Z,76.82
2023-04-14T14:57:01.613Z,74.75
2023-04-14T14:58:25.689Z,71.30
2023-04-14T14:59:54.315Z,74.78
2023-04-14T15:01:20.180Z,69.18
2023-04-14T15:02:43.763Z,72.38
2023-04-14T15:04:06.911Z,77.82
2023-04-14T15:06:03.164Z,75.88
2023-04-14T15:07:25.917Z,75.43
2023-04-14T15:08:49.302Z,72.63
2023-04-14T15:10:16.964Z,79.40
2023-04-14T15:12:17.646Z,77.55
2023-04-14T15:13:47.915Z,78.90
2023-04-14T15:15:11.659Z,73.30
2023-04-14T15:16:38.316Z,81.78
2023-04-14T15:18:00.875Z,74.65
2023-04-14T15:19:47.023Z,75.35
2023-04-14T15:22:29.978Z,74.05
2023-04-14T15:26:23.918Z,83.88
2023-04-14T15:28:13.693Z,81.10
2023-04-14T15:30:01.096Z,80.07
2023-04-14T15:31:44.123Z,81.22
2023-04-14T15:33:07.318Z,84.68
2023-04-14T15:35:04.212Z,79.95
2023-04-14T15:36:46.816Z,84.25
2023-04-14T15:40:03.252Z,74.25
2023-04-14T15:41:29.322Z,79.93
2023-04-14T15:42:56.673Z,85.50
2023-04-14T15:44:20.422Z,82.15
2023-04-14T15:46:36.942Z,78.25
2023-04-14T15:47:38.688Z,90.18
2023-04-14T15:49:05.556Z,85.45
2023-04-14T15:50:29.810Z,84.70
2023-04-14T15:52:00.921Z,83.85
2023-04-14T15:53:29.158Z,78.57
2023-04-14T15:54:52.754Z,82.15
2023-04-14T15:56:16.023Z,83.13
2023-04-14T15:57:38.457Z,77.82
2023-04-14T15:59:02.804Z,79.10
2023-04-14T16:00:27.846Z,84.28
2023-04-14T16:02:09.876Z,84.70
2023-04-14T16:03:36.016Z,80.00
2023-04-14T16:05:20.022Z,87.15
2023-04-14T16:07:16.834Z,86.43
2023-04-14T16:12:11.091Z,94.47
2023-04-14T16:13:57.919Z,93.65
2023-04-14T16:16:10.531Z,87.60
2023-04-14T16:17:45.820Z,90.95
2023-04-14T16:19:10.603Z,103.72
2023-04-14T16:20:38.031Z,96.38
2023-04-14T16:22:02.920Z,97.65
2023-04-14T16:23:31.107Z,100.60
2023-04-14T16:25:28.970Z,97.72
2023-04-14T16:26:59.345Z,96.85
2023-04-14T16:28:32.402Z,91.40
2023-04-14T16:32:57.472Z,97.72
2023-04-14T16:37:31.265Z,104.53
2023-04-14T16:39:23.499Z,101.80
2023-04-14T16:53:24.340Z,90.07
2023-04-14T16:54:54.461Z,100.65
2023-04-14T16:56:17.978Z,106.40
2023-04-14T16:57:50.360Z,104.25
2023-04-14T16:59:31.852Z,103.85
2023-04-14T17:01:06.028Z,100.80
2023-04-14T17:02:31.193Z,100.70
2023-04-14T17:03:53.362Z,104.88
2023-04-14T17:05:23.062Z,104.88
2023-04-14T17:07:08.152Z,105.95
2023-04-14T17:08:30.634Z,98.05
2023-04-14T17:10:04.355Z,100.07
2023-04-14T17:11:30.076Z,115.07
2023-04-14T17:12:52.796Z,109.30
2023-04-14T17:14:22.972Z,106.43
2023-04-14T17:15:45.720Z,103.03
2023-04-14T17:17:16.843Z,110.65
2023-04-14T17:18:54.458Z,104.57
2023-04-14T17:20:27.933Z,106.30
2023-04-14T17:22:02.156Z,104.25
2023-04-14T17:23:38.216Z,103.53
2023-04-14T17:25:01.396Z,106.53
2023-04-14T17:26:25.060Z,112.05
2023-04-14T17:27:51.233Z,102.93
2023-04-14T17:29:16.301Z,105.03
2023-04-14T17:30:41.779Z,102.78
2023-04-14T17:32:19.821Z,103.25
2023-04-14T17:33:47.540Z,104.35
2023-04-14T17:35:11.902Z,106.97
2023-04-14T17:36:39.200Z,109.65
2023-04-14T17:38:15.426Z,107.88
2023-04-14T17:39:51.920Z,110.38
2023-04-14T17:41:30.924Z,110.35
2023-04-14T17:43:51.770Z,112.13
2023-04-14T17:45:23.152Z,108.03
2023-04-14T17:46:59.544Z,108.30
2023-04-14T17:48:26.180Z,112.60
2023-04-14T17:49:50.104Z,118.63
2023-04-14T17:54:07.805Z,110.45
2023-04-14T17:55:40.100Z,111.35
2023-04-14T17:57:03.910Z,117.75
2023-04-14T17:58:26.433Z,112.82
2023-04-14T17:59:49.116Z,111.57
2023-04-14T18:01:15.136Z,105.57
2023-04-14T18:02:39.455Z,116.28
2023-04-14T18:04:06.757Z,111.95
2023-04-14T18:05:38.242Z,118.13
2023-04-14T18:07:02.720Z,113.78
2023-04-14T18:08:25.218Z,115.10
2023-04-14T18:09:48.511Z,115.20
2023-04-14T18:11:44.524Z,115.85
2023-04-14T18:12:57.350Z,116.05
2023-04-14T18:14:19.809Z,119.97
2023-04-14T18:15:42.808Z,121.43
2023-04-14T18:17:05.370Z,109.90
2023-04-14T18:18:27.664Z,117.88
2023-04-14T18:19:51.613Z,121.40
2023-04-14T18:21:14.554Z,117.75
2023-04-14T18:22:36.696Z,117.05
2023-04-14T18:25:27.109Z,117.57
2023-04-14T18:26:52.045Z,117.32
2023-04-14T18:28:13.983Z,114.53
2023-04-14T18:29:37.420Z,119.07
2023-04-14T18:30:59.867Z,117.22
2023-04-14T18:32:25.416Z,120.10
2023-04-14T18:33:47.871Z,119.45
2023-04-14T18:35:13.107Z,118.95
2023-04-14T18:36:35.347Z,129.45
2023-04-14T18:37:56.828Z,117.70
2023-04-14T18:39:19.300Z,124.50
2023-04-14T18:40:41.720Z,121.00
2023-04-14T18:42:03.956Z,127.90
2023-04-14T18:43:26.504Z,121.03
2023-04-14T18:44:48.673Z,118.28
2023-04-14T18:46:11.004Z,128.77
2023-04-14T18:48:58.215Z,131.85
2023-04-14T18:51:46.880Z,126.38
2023-04-14T18:53:16.796Z,131.35
2023-04-14T18:54:39.425Z,146.35
2023-04-14T18:56:49.207Z,132.00
2023-04-14T19:01:42.947Z,137.52
2023-04-14T19:03:27.349Z,141.13
2023-04-14T19:05:00.939Z,153.57
2023-04-14T19:06:27.826Z,149.10
2023-04-14T19:08:09.950Z,136.90
2023-04-14T19:12:28.739Z,140.85
2023-04-14T19:13:55.374Z,147.90
2023-04-14T19:15:20.376Z,148.55
2023-04-14T19:17:35.779Z,156.20
2023-04-14T19:22:51.860Z,150.73
2023-04-14T19:25:03.094Z,151.18
2023-04-14T19:27:09.191Z,155.15
2023-04-14T19:28:35.998Z,162.65
2023-04-14T19:29:58.610Z,178.10
2023-04-14T19:31:28.602Z,168.70
2023-04-14T19:32:52.192Z,166.60
2023-04-14T19:34:48.970Z,174.95
2023-04-14T19:36:46.731Z,167.23
2023-04-14T19:43:44.590Z,177.05
2023-04-14T19:48:53.115Z,172.98
2023-04-14T19:50:57.117Z,167.30
2023-04-14T19:52:43.574Z,180.85
2023-04-14T19:54:16.102Z,165.48
2023-04-14T19:56:15.092Z,168.57
2023-04-14T19:58:36.865Z,160.10
2023-04-14T20:00:12.917Z,170.23
2023-04-14T20:01:51.904Z,170.95
2023-04-14T20:03:20.676Z,163.63
2023-04-14T20:04:51.993Z,170.75
2023-04-14T20:06:20.518Z,167.73
2023-04-14T20:07:45.447Z,178.95
2023-04-14T20:09:53.564Z,171.88
2023-04-14T20:11:36.943Z,159.88
2023-04-14T20:13:11.330Z,164.90
2023-04-14T20:15:10.201Z,162.68
2023-04-14T20:18:36.478Z,168.32
2023-04-14T20:20:35.182Z,177.25
2023-04-14T20:24:08.258Z,159.40
2023-04-14T20:25:31.164Z,153.75
2023-04-14T20:26:56.707Z,161.80
2023-04-14T20:28:36.695Z,167.00
2023-04-14T20:30:56.036Z,163.15
2023-04-14T20:33:28.554Z,167.02
2023-04-14T20:35:52.672Z,169.02
2023-04-14T20:37:52.713Z,149.98
2023-04-14T21:06:51.133Z,167.13
2023-04-14T21:09:09.754Z,174.15
2023-04-14T21:29:12.786Z,185.73
2023-04-14T21:31:15.250Z,194.10
2023-04-14T21:36:27.926Z,189.50
2023-04-14T21:42:08.129Z,214.13
2023-04-14T21:44:35.792Z,206.10
2023-04-14T21:47:08.812Z,229.38
2023-04-14T21:49:13.380Z,215.13
2023-04-14T21:53:02.302Z,201.07
2023-04-14T21:54:26.752Z,202.57
2023-04-14T21:56:09.105Z,219.38
2023-04-14T21:57:45.675Z,230.43
2023-04-14T21:59:21.684Z,177.50
2023-04-14T22:01:07.658Z,220.63
2023-04-14T22:02:43.593Z,260.38
2023-04-14T22:04:07.656Z,272.17
2023-04-14T22:06:19.156Z,263.27
2023-04-14T22:08:26.698Z,219.77
2023-04-14T22:11:08.791Z,243.70
2023-04-14T22:12:33.198Z,270.85
2023-04-14T22:16:43.673Z,233.10
2023-04-14T22:18:24.478Z,243.98
2023-04-14T22:20:21.786Z,254.68
2023-04-14T22:21:44.481Z,246.15
2023-04-14T22:23:13.390Z,236.40
2023-04-14T22:24:45.083Z,210.88
2023-04-14T22:26:10.464Z,213.43
2023-04-14T22:27:42.971Z,218.15
2023-04-14T22:29:09.759Z,211.52
2023-04-14T22:30:32.505Z,229.73
2023-04-14T22:31:54.948Z,237.18
2023-04-14T22:33:17.564Z,261.15
2023-04-14T22:34:40.024Z,231.40
2023-04-14T22:36:12.800Z,201.02
2023-04-14T22:37:46.190Z,221.63
2023-04-14T22:39:14.334Z,194.48
2023-04-14T22:40:45.845Z,182.63
2023-04-14T22:42:15.100Z,221.55
2023-04-14T22:43:44.885Z,201.27
2023-04-14T22:45:08.651Z,172.93
2023-04-14T22:46:29.902Z,204.13
2023-04-14T22:47:53.955Z,201.15
2023-04-14T22:49:18.568Z,205.98
2023-04-14T22:51:15.451Z,206.70
2023-04-14T22:52:37.878Z,188.93
2023-04-14T22:54:00.889Z,180.70
2023-04-14T22:55:22.320Z,191.65
2023-04-14T22:56:44.872Z,192.90
2023-04-14T22:58:17.082Z,209.75
2023-04-14T22:59:39.981Z,206.57
2023-04-14T23:01:21.361Z,185.02
2023-04-14T23:03:07.328Z,186.85
2023-04-14T23:04:33.156Z,212.38
2023-04-14T23:06:45.487Z,208.80
2023-04-14T23:08:21.648Z,213.68
2023-04-14T23:09:50.087Z,177.82
2023-04-14T23:11:43.450Z,186.35
2023-04-14T23:13:05.963Z,189.40
2023-04-14T23:14:37.549Z,176.20
2023-04-14T23:15:59.849Z,172.82
2023-04-14T23:17:25.433Z,174.68
2023-04-14T23:18:57.783Z,164.32
2023-04-14T23:23:05.731Z,200.10
2023-04-14T23:24:43.881Z,154.18
2023-04-14T23:26:31.247Z,147.02